PAL1192 RPLL-RPVE
Flight info
| Callsign | PAL1192 |
|---|---|
| Flight time | 0h 35m |
| Altitude | 23000 |
| Route | VERDE4V VERDE W24 TAPER TAPER7A |
| Aircraft | A20N/M-SDE2E3FGHIRWXY/LB1 |
Departure
| Time | 2026-04-24 07:09 |
|---|---|
| Airport | Ninoy Aquino International Airport (RPLL) |
Arrival
| Time | 2026-04-24 07:44 |
|---|---|
| Airport | Godofredo P. Ramos Airport (RPVE) |
| Time | Latitude | Longitude | Altitude | Speed | Heading |
|---|---|---|---|---|---|
| 2026-04-24 05:59 | 14.50848 | 121.01304 | 52 ft | 0 kts | 329° |
| 2026-04-24 06:53 | 14.50843 | 121.01307 | 52 ft | 2 kts | 329° |
| 2026-04-24 06:54 | 14.50830 | 121.01315 | 52 ft | 2 kts | 329° |
| 2026-04-24 06:54 | 14.50816 | 121.01323 | 51 ft | 2 kts | 329° |
| 2026-04-24 06:54 | 14.50804 | 121.01331 | 51 ft | 2 kts | 329° |
| 2026-04-24 06:54 | 14.50790 | 121.01340 | 51 ft | 2 kts | 339° |
| 2026-04-24 06:55 | 14.50775 | 121.01341 | 51 ft | 2 kts | 13° |
| 2026-04-24 06:55 | 14.50762 | 121.01334 | 51 ft | 2 kts | 43° |
| 2026-04-24 06:55 | 14.50756 | 121.01327 | 50 ft | 1 kts | 60° |
| 2026-04-24 06:55 | 14.50753 | 121.01321 | 50 ft | 0 kts | 61° |
| 2026-04-24 07:01 | 14.50756 | 121.01326 | 50 ft | 1 kts | 60° |
| 2026-04-24 07:01 | 14.50765 | 121.01343 | 51 ft | 4 kts | 60° |
| 2026-04-24 07:01 | 14.50787 | 121.01383 | 51 ft | 9 kts | 60° |
| 2026-04-24 07:01 | 14.50827 | 121.01455 | 54 ft | 12 kts | 60° |
| 2026-04-24 07:02 | 14.50874 | 121.01542 | 54 ft | 16 kts | 61° |
| 2026-04-24 07:02 | 14.50935 | 121.01651 | 54 ft | 17 kts | 60° |
| 2026-04-24 07:02 | 14.50998 | 121.01763 | 53 ft | 18 kts | 59° |
| 2026-04-24 07:02 | 14.51063 | 121.01878 | 54 ft | 16 kts | 60° |
| 2026-04-24 07:03 | 14.51126 | 121.01929 | 56 ft | 11 kts | 336° |
| 2026-04-24 07:03 | 14.51187 | 121.01871 | 56 ft | 12 kts | 312° |
| 2026-04-24 07:03 | 14.51248 | 121.01804 | 56 ft | 13 kts | 315° |
| 2026-04-24 07:03 | 14.51314 | 121.01736 | 58 ft | 13 kts | 314° |
| 2026-04-24 07:04 | 14.51385 | 121.01662 | 58 ft | 15 kts | 315° |
| 2026-04-24 07:04 | 14.51471 | 121.01575 | 56 ft | 18 kts | 316° |
| 2026-04-24 07:04 | 14.51570 | 121.01475 | 55 ft | 21 kts | 314° |
| 2026-04-24 07:04 | 14.51678 | 121.01359 | 52 ft | 23 kts | 314° |
| 2026-04-24 07:05 | 14.51796 | 121.01240 | 50 ft | 23 kts | 317° |
| 2026-04-24 07:05 | 14.51918 | 121.01117 | 47 ft | 25 kts | 316° |
| 2026-04-24 07:05 | 14.52045 | 121.00983 | 43 ft | 27 kts | 315° |
| 2026-04-24 07:05 | 14.52179 | 121.00842 | 40 ft | 27 kts | 314° |
| 2026-04-24 07:06 | 14.52317 | 121.00701 | 37 ft | 27 kts | 315° |
| 2026-04-24 07:06 | 14.52451 | 121.00561 | 35 ft | 27 kts | 315° |
| 2026-04-24 07:06 | 14.52450 | 121.00466 | 34 ft | 16 kts | 188° |
| 2026-04-24 07:06 | 14.52413 | 121.00459 | 27 ft | 0 kts | 184° |
| 2026-04-24 07:07 | 14.52356 | 121.00455 | 34 ft | 9 kts | 181° |
| 2026-04-24 07:07 | 14.52298 | 121.00474 | 34 ft | 9 kts | 141° |
| 2026-04-24 07:07 | 14.52274 | 121.00497 | 34 ft | 0 kts | 133° |
| 2026-04-24 07:08 | 14.52218 | 121.00557 | 35 ft | 34 kts | 135° |
| 2026-04-24 07:08 | 14.51885 | 121.00897 | 44 ft | 101 kts | 135° |
| 2026-04-24 07:08 | 14.51248 | 121.01575 | 74 ft | 158 kts | 130° |
| 2026-04-24 07:09 | 14.50450 | 121.02441 | 512 ft | 172 kts | 136° |
| 2026-04-24 07:09 | 14.49549 | 121.03348 | 1021 ft | 191 kts | 136° |
| 2026-04-24 07:09 | 14.48578 | 121.04355 | 1618 ft | 204 kts | 135° |
| 2026-04-24 07:09 | 14.47591 | 121.05413 | 2118 ft | 211 kts | 134° |
| 2026-04-24 07:10 | 14.46522 | 121.06516 | 2516 ft | 224 kts | 135° |
| 2026-04-24 07:10 | 14.45392 | 121.07655 | 3016 ft | 232 kts | 139° |
| 2026-04-24 07:10 | 14.43956 | 121.08395 | 3631 ft | 235 kts | 171° |
| 2026-04-24 07:10 | 14.42343 | 121.08242 | 4258 ft | 240 kts | 200° |
| 2026-04-24 07:11 | 14.40949 | 121.07231 | 4693 ft | 256 kts | 228° |
| 2026-04-24 07:11 | 14.39783 | 121.05740 | 5086 ft | 273 kts | 231° |
| 2026-04-24 07:11 | 14.38604 | 121.04174 | 5600 ft | 285 kts | 231° |
| 2026-04-24 07:11 | 14.37295 | 121.02508 | 6302 ft | 291 kts | 231° |
| 2026-04-24 07:12 | 14.35902 | 121.00877 | 7077 ft | 293 kts | 217° |
| 2026-04-24 07:12 | 14.34019 | 121.00004 | 7925 ft | 292 kts | 192° |
| 2026-04-24 07:12 | 14.31919 | 120.99630 | 8741 ft | 294 kts | 189° |
| 2026-04-24 07:12 | 14.29784 | 120.99307 | 9514 ft | 297 kts | 189° |
| 2026-04-24 07:13 | 14.27657 | 120.98965 | 10288 ft | 299 kts | 190° |
| 2026-04-24 07:13 | 14.25539 | 120.98594 | 10777 ft | 311 kts | 190° |
| 2026-04-24 07:13 | 14.23293 | 120.98185 | 11096 ft | 329 kts | 191° |
| 2026-04-24 07:13 | 14.20969 | 120.97755 | 11397 ft | 346 kts | 191° |
| 2026-04-24 07:14 | 14.18543 | 120.97303 | 11684 ft | 361 kts | 191° |
| 2026-04-24 07:14 | 14.16039 | 120.96836 | 12195 ft | 368 kts | 191° |
| 2026-04-24 07:14 | 14.13519 | 120.96367 | 12819 ft | 371 kts | 191° |
| 2026-04-24 07:14 | 14.10965 | 120.95891 | 13394 ft | 374 kts | 191° |
| 2026-04-24 07:15 | 14.08356 | 120.95403 | 13953 ft | 378 kts | 191° |
| 2026-04-24 07:15 | 14.05758 | 120.94948 | 14490 ft | 381 kts | 188° |
| 2026-04-24 07:15 | 14.02956 | 120.94773 | 15043 ft | 385 kts | 180° |
| 2026-04-24 07:15 | 14.00228 | 120.94984 | 15579 ft | 389 kts | 173° |
| 2026-04-24 07:16 | 13.97459 | 120.95414 | 16093 ft | 392 kts | 171° |
| 2026-04-24 07:16 | 13.94690 | 120.95882 | 16593 ft | 395 kts | 171° |
| 2026-04-24 07:16 | 13.91924 | 120.96350 | 17052 ft | 399 kts | 171° |
| 2026-04-24 07:16 | 13.89186 | 120.96809 | 17487 ft | 402 kts | 171° |
| 2026-04-24 07:17 | 13.86389 | 120.97270 | 17958 ft | 405 kts | 171° |
| 2026-04-24 07:17 | 13.83612 | 120.97725 | 18411 ft | 408 kts | 171° |
| 2026-04-24 07:17 | 13.80772 | 120.98189 | 18870 ft | 410 kts | 171° |
| 2026-04-24 07:17 | 13.77947 | 120.98652 | 19325 ft | 413 kts | 171° |
| 2026-04-24 07:18 | 13.75078 | 120.99121 | 19782 ft | 415 kts | 171° |
| 2026-04-24 07:18 | 13.72222 | 120.99589 | 20235 ft | 417 kts | 171° |
| 2026-04-24 07:18 | 13.69311 | 121.00066 | 20666 ft | 420 kts | 171° |
| 2026-04-24 07:18 | 13.66438 | 121.00536 | 21087 ft | 422 kts | 171° |
| 2026-04-24 07:19 | 13.63485 | 121.01020 | 21509 ft | 425 kts | 171° |
| 2026-04-24 07:19 | 13.60548 | 121.01501 | 21908 ft | 428 kts | 171° |
| 2026-04-24 07:19 | 13.57600 | 121.01983 | 22312 ft | 431 kts | 171° |
| 2026-04-24 07:19 | 13.54637 | 121.02469 | 22710 ft | 433 kts | 171° |
| 2026-04-24 07:20 | 13.51670 | 121.03203 | 22863 ft | 435 kts | 162° |
| 2026-04-24 07:20 | 13.48873 | 121.04364 | 22864 ft | 435 kts | 154° |
| 2026-04-24 07:20 | 13.46257 | 121.05935 | 22891 ft | 435 kts | 147° |
| 2026-04-24 07:20 | 13.43757 | 121.07695 | 22914 ft | 435 kts | 145° |
| 2026-04-24 07:21 | 13.41291 | 121.09478 | 22936 ft | 435 kts | 145° |
| 2026-04-24 07:21 | 13.38793 | 121.11269 | 22947 ft | 434 kts | 146° |
| 2026-04-24 07:21 | 13.36330 | 121.13013 | 22956 ft | 433 kts | 146° |
| 2026-04-24 07:21 | 13.33825 | 121.14771 | 22962 ft | 434 kts | 146° |
| 2026-04-24 07:22 | 13.31343 | 121.16503 | 22963 ft | 434 kts | 146° |
| 2026-04-24 07:22 | 13.28816 | 121.18269 | 22961 ft | 435 kts | 146° |
| 2026-04-24 07:22 | 13.26338 | 121.20001 | 22956 ft | 435 kts | 146° |
| 2026-04-24 07:22 | 13.23838 | 121.21752 | 22942 ft | 436 kts | 146° |
| 2026-04-24 07:23 | 13.21299 | 121.23531 | 22928 ft | 436 kts | 146° |
| 2026-04-24 07:23 | 13.18814 | 121.25272 | 22916 ft | 436 kts | 146° |
| 2026-04-24 07:23 | 13.16298 | 121.27035 | 22914 ft | 435 kts | 146° |
| 2026-04-24 07:23 | 13.13808 | 121.28781 | 22918 ft | 435 kts | 146° |
| 2026-04-24 07:24 | 13.11305 | 121.30535 | 22922 ft | 435 kts | 146° |
| 2026-04-24 07:24 | 13.08787 | 121.32298 | 22925 ft | 434 kts | 146° |
| 2026-04-24 07:24 | 13.06307 | 121.34035 | 22934 ft | 434 kts | 146° |
| 2026-04-24 07:24 | 13.03798 | 121.35791 | 22938 ft | 433 kts | 146° |
| 2026-04-24 07:25 | 13.01309 | 121.37531 | 22937 ft | 434 kts | 146° |
| 2026-04-24 07:25 | 12.98812 | 121.39278 | 22935 ft | 434 kts | 145° |
| 2026-04-24 07:25 | 12.96308 | 121.41028 | 22933 ft | 434 kts | 145° |
| 2026-04-24 07:25 | 12.93834 | 121.42758 | 22634 ft | 436 kts | 145° |
| 2026-04-24 07:26 | 12.91330 | 121.44510 | 22035 ft | 434 kts | 145° |
| 2026-04-24 07:26 | 12.88817 | 121.46266 | 21480 ft | 431 kts | 145° |
| 2026-04-24 07:26 | 12.86335 | 121.47993 | 20946 ft | 428 kts | 145° |
| 2026-04-24 07:26 | 12.83897 | 121.49688 | 20420 ft | 425 kts | 145° |
| 2026-04-24 07:27 | 12.81463 | 121.51383 | 19901 ft | 421 kts | 145° |
| 2026-04-24 07:27 | 12.79042 | 121.53072 | 19399 ft | 417 kts | 145° |
| 2026-04-24 07:27 | 12.76665 | 121.54730 | 18904 ft | 414 kts | 145° |
| 2026-04-24 07:27 | 12.74282 | 121.56393 | 18410 ft | 410 kts | 145° |
| 2026-04-24 07:28 | 12.71931 | 121.58034 | 17913 ft | 407 kts | 145° |
| 2026-04-24 07:28 | 12.69624 | 121.59646 | 17426 ft | 403 kts | 145° |
| 2026-04-24 07:28 | 12.67297 | 121.61270 | 16946 ft | 399 kts | 145° |
| 2026-04-24 07:28 | 12.65014 | 121.62865 | 16476 ft | 396 kts | 145° |
| 2026-04-24 07:29 | 12.62748 | 121.64446 | 16017 ft | 393 kts | 145° |
| 2026-04-24 07:29 | 12.60496 | 121.66022 | 15536 ft | 390 kts | 145° |
| 2026-04-24 07:29 | 12.58271 | 121.67589 | 15046 ft | 387 kts | 145° |
| 2026-04-24 07:29 | 12.56064 | 121.69139 | 14554 ft | 384 kts | 146° |
| 2026-04-24 07:30 | 12.53843 | 121.70695 | 14060 ft | 383 kts | 146° |
| 2026-04-24 07:30 | 12.51654 | 121.72224 | 13575 ft | 381 kts | 146° |
| 2026-04-24 07:30 | 12.49476 | 121.73743 | 13073 ft | 378 kts | 146° |
| 2026-04-24 07:30 | 12.47321 | 121.75247 | 12590 ft | 375 kts | 146° |
| 2026-04-24 07:31 | 12.45162 | 121.76753 | 12140 ft | 372 kts | 146° |
| 2026-04-24 07:31 | 12.43015 | 121.78249 | 11668 ft | 368 kts | 146° |
| 2026-04-24 07:31 | 12.40920 | 121.79706 | 11222 ft | 365 kts | 146° |
| 2026-04-24 07:31 | 12.38830 | 121.81156 | 10752 ft | 362 kts | 146° |
| 2026-04-24 07:32 | 12.36556 | 121.82242 | 10352 ft | 355 kts | 168° |
| 2026-04-24 07:32 | 12.34141 | 121.82286 | 10249 ft | 340 kts | 189° |
| 2026-04-24 07:32 | 12.31877 | 121.81791 | 10157 ft | 326 kts | 192° |
| 2026-04-24 07:32 | 12.29703 | 121.81296 | 10071 ft | 312 kts | 192° |
| 2026-04-24 07:33 | 12.27636 | 121.80831 | 10001 ft | 298 kts | 192° |
| 2026-04-24 07:33 | 12.25609 | 121.80381 | 9672 ft | 295 kts | 191° |
| 2026-04-24 07:33 | 12.23593 | 121.79938 | 9337 ft | 293 kts | 191° |
| 2026-04-24 07:33 | 12.21609 | 121.79505 | 9011 ft | 290 kts | 191° |
| 2026-04-24 07:34 | 12.19618 | 121.79072 | 8682 ft | 288 kts | 191° |
| 2026-04-24 07:34 | 12.17676 | 121.78651 | 8368 ft | 286 kts | 191° |
| 2026-04-24 07:34 | 12.15728 | 121.78228 | 8048 ft | 284 kts | 191° |
| 2026-04-24 07:34 | 12.13793 | 121.77808 | 7733 ft | 282 kts | 191° |
| 2026-04-24 07:35 | 12.11874 | 121.77393 | 7421 ft | 280 kts | 190° |
| 2026-04-24 07:35 | 12.09992 | 121.76985 | 7114 ft | 278 kts | 191° |
| 2026-04-24 07:35 | 12.08095 | 121.76575 | 6804 ft | 276 kts | 190° |
| 2026-04-24 07:35 | 12.06214 | 121.76168 | 6501 ft | 274 kts | 190° |
| 2026-04-24 07:36 | 12.04349 | 121.75764 | 6206 ft | 273 kts | 190° |
| 2026-04-24 07:36 | 12.02490 | 121.75362 | 5915 ft | 271 kts | 189° |
| 2026-04-24 07:36 | 12.00661 | 121.74966 | 5628 ft | 269 kts | 189° |
| 2026-04-24 07:36 | 11.98831 | 121.74571 | 5336 ft | 267 kts | 189° |
| 2026-04-24 07:37 | 11.96988 | 121.74174 | 5042 ft | 266 kts | 189° |
| 2026-04-24 07:37 | 11.95175 | 121.73782 | 4754 ft | 264 kts | 189° |
| 2026-04-24 07:37 | 11.93368 | 121.73392 | 4467 ft | 263 kts | 189° |
| 2026-04-24 07:37 | 11.91568 | 121.73113 | 4159 ft | 260 kts | 175° |
| 2026-04-24 07:38 | 11.89820 | 121.73498 | 3882 ft | 251 kts | 153° |
| 2026-04-24 07:38 | 11.88280 | 121.74281 | 3779 ft | 239 kts | 149° |
| 2026-04-24 07:38 | 11.86859 | 121.75043 | 3771 ft | 227 kts | 149° |
| 2026-04-24 07:38 | 11.85463 | 121.75790 | 3761 ft | 221 kts | 149° |
| 2026-04-24 07:39 | 11.84263 | 121.76701 | 3563 ft | 210 kts | 119° |
| 2026-04-24 07:39 | 11.83914 | 121.78065 | 3368 ft | 198 kts | 79° |
| 2026-04-24 07:39 | 11.84347 | 121.79382 | 3196 ft | 196 kts | 64° |
| 2026-04-24 07:39 | 11.84989 | 121.80593 | 3069 ft | 190 kts | 62° |
| 2026-04-24 07:40 | 11.85618 | 121.81741 | 2845 ft | 184 kts | 62° |
| 2026-04-24 07:40 | 11.86216 | 121.82885 | 2573 ft | 180 kts | 63° |
| 2026-04-24 07:40 | 11.86782 | 121.84013 | 2325 ft | 175 kts | 63° |
| 2026-04-24 07:40 | 11.87312 | 121.85081 | 2090 ft | 163 kts | 63° |
| 2026-04-24 07:41 | 11.87799 | 121.86063 | 1903 ft | 148 kts | 63° |
| 2026-04-24 07:41 | 11.88256 | 121.86986 | 1713 ft | 143 kts | 63° |
| 2026-04-24 07:41 | 11.88703 | 121.87884 | 1524 ft | 141 kts | 63° |
| 2026-04-24 07:41 | 11.89148 | 121.88777 | 1333 ft | 141 kts | 63° |
| 2026-04-24 07:42 | 11.89593 | 121.89671 | 1156 ft | 141 kts | 63° |
| 2026-04-24 07:42 | 11.90027 | 121.90570 | 985 ft | 140 kts | 63° |
| 2026-04-24 07:42 | 11.90479 | 121.91451 | 759 ft | 140 kts | 62° |
| 2026-04-24 07:42 | 11.90922 | 121.92328 | 588 ft | 139 kts | 63° |
| 2026-04-24 07:43 | 11.91356 | 121.93208 | 398 ft | 140 kts | 64° |
| 2026-04-24 07:43 | 11.91793 | 121.94084 | 260 ft | 136 kts | 63° |
| 2026-04-24 07:43 | 11.92217 | 121.94930 | 82 ft | 131 kts | 63° |
| 2026-04-24 07:43 | 11.92626 | 121.95737 | 13 ft | 112 kts | 64° |
| 2026-04-24 07:44 | 11.92900 | 121.96292 | 12 ft | 60 kts | 63° |
| 2026-04-24 07:44 | 11.92937 | 121.96365 | 12 ft | 0 kts | 62° |
| 2026-04-24 07:44 | 11.92941 | 121.96372 | 12 ft | 4 kts | 63° |
| 2026-04-24 07:44 | 11.92952 | 121.96431 | 12 ft | 9 kts | 94° |
| 2026-04-24 07:45 | 11.92903 | 121.96488 | 12 ft | 14 kts | 152° |
| 2026-04-24 07:45 | 11.92790 | 121.96523 | 12 ft | 17 kts | 206° |
| 2026-04-24 07:45 | 11.92726 | 121.96422 | 12 ft | 14 kts | 242° |
| 2026-04-24 07:45 | 11.92672 | 121.96406 | 12 ft | 6 kts | 143° |